Time;durP1;ratioP1;P1;durP2;ratioP2;P2;SDS_P1;SDS_P2;PMS_P1;PMS_P2;Temp;Humidity;BMP_temperature;BMP_pressure;BME280_temperature;BME280_humidity;BME280_pressure;Samples;Min_cycle;Max_cycle;Signal;HPM_P1;HPM_P2
2021/12/27 00:01:09;;;;;;;21.00;12.07;;;2.50;99.90;;;;;;4936707;29;20035;-73
2021/12/27 00:03:35;;;;;;;22.50;12.15;;;2.60;99.90;;;;;;4936543;29;20035;-75
2021/12/27 00:06:01;;;;;;;14.23;8.70;;;2.50;99.90;;;;;;4936439;29;20067;-77
2021/12/27 00:08:28;;;;;;;24.02;13.45;;;2.60;99.90;;;;;;4935167;29;20211;-68
2021/12/27 00:10:54;;;;;;;18.33;11.13;;;2.50;99.90;;;;;;4936229;29;20496;-72
2021/12/27 00:13:20;;;;;;;19.88;12.80;;;2.50;99.90;;;;;;4936322;29;20099;-76
2021/12/27 00:15:46;;;;;;;20.48;12.60;;;2.50;99.90;;;;;;4936234;29;20047;-76
2021/12/27 00:18:12;;;;;;;22.60;14.35;;;2.50;99.90;;;;;;4936430;29;20067;-76
2021/12/27 00:20:38;;;;;;;25.65;14.43;;;2.60;99.90;;;;;;4936438;29;20525;-75
2021/12/27 00:23:04;;;;;;;20.33;12.93;;;2.60;99.90;;;;;;4936214;29;20032;-76
2021/12/27 00:25:30;;;;;;;19.63;10.90;;;2.60;99.90;;;;;;4936604;29;20657;-69
2021/12/27 00:27:56;;;;;;;22.73;14.35;;;2.60;99.90;;;;;;4936281;29;20024;-76
2021/12/27 00:30:22;;;;;;;25.42;13.95;;;2.70;99.90;;;;;;4937052;29;20039;-75
2021/12/27 00:32:50;;;;;;;30.90;18.70;;;2.70;99.90;;;;;;4937097;29;20035;-68
2021/12/27 00:35:18;;;;;;;18.70;11.60;;;2.80;99.90;;;;;;4935497;29;20106;-77
2021/12/27 00:37:44;;;;;;;27.95;16.77;;;2.70;99.90;;;;;;4936834;29;20034;-69
2021/12/27 00:40:11;;;;;;;28.25;17.30;;;2.80;99.90;;;;;;4936243;29;20031;-68
2021/12/27 00:42:38;;;;;;;24.27;13.82;;;2.70;99.90;;;;;;4936333;29;20119;-78
2021/12/27 00:45:05;;;;;;;31.52;20.63;;;2.80;99.90;;;;;;4935936;29;20066;-76
2021/12/27 00:47:32;;;;;;;20.23;10.98;;;2.80;99.90;;;;;;4936012;29;20071;-75
2021/12/27 00:49:58;;;;;;;19.80;12.98;;;2.90;99.90;;;;;;4935845;29;20426;-77
2021/12/27 00:52:24;;;;;;;19.90;11.50;;;3.00;99.90;;;;;;4935555;29;20042;-69
2021/12/27 00:54:49;;;;;;;19.13;12.05;;;3.00;99.90;;;;;;4935832;29;20020;-75
2021/12/27 00:57:15;;;;;;;21.23;10.77;;;3.00;99.90;;;;;;4935681;29;20493;-68
2021/12/27 00:59:41;;;;;;;22.45;13.68;;;3.10;99.90;;;;;;4935741;29;20055;-76
2021/12/27 01:02:07;;;;;;;25.85;15.82;;;3.00;99.90;;;;;;4935236;29;20115;-69
2021/12/27 01:04:33;;;;;;;24.85;14.23;;;3.00;99.90;;;;;;4935350;29;20034;-77
2021/12/27 01:06:59;;;;;;;20.02;12.35;;;3.20;99.90;;;;;;4935415;29;20056;-69
2021/12/27 01:09:37;;;;;;;20.85;12.52;;;3.20;99.90;;;;;;4935693;29;20044;-77
2021/12/27 01:14:44;;;;;;;24.17;14.88;;;3.30;99.90;;;;;;4935697;29;20375;-70
2021/12/27 01:17:11;;;;;;;30.80;20.83;;;3.20;99.90;;;;;;4935599;29;20031;-75
2021/12/27 01:19:37;;;;;;;37.45;24.75;;;3.20;99.90;;;;;;4935121;29;20553;-76
2021/12/27 01:22:04;;;;;;;27.73;17.25;;;3.10;99.90;;;;;;4935546;29;20035;-75
2021/12/27 01:24:30;;;;;;;35.83;20.50;;;3.00;99.90;;;;;;4935565;29;20027;-78
2021/12/27 01:26:59;;;;;;;30.48;20.05;;;3.10;99.90;;;;;;4935404;29;20031;-69
2021/12/27 01:29:25;;;;;;;34.60;22.45;;;3.00;99.90;;;;;;4935290;29;20038;-72
2021/12/27 01:31:50;;;;;;;30.40;17.73;;;3.10;99.90;;;;;;4935100;29;20036;-77
2021/12/27 01:34:16;;;;;;;27.50;16.73;;;3.10;99.90;;;;;;4935138;29;20131;-77
2021/12/27 01:36:42;;;;;;;29.30;16.40;;;3.10;99.90;;;;;;4935039;29;20039;-77
2021/12/27 01:39:09;;;;;;;22.08;14.00;;;3.00;99.90;;;;;;4934072;29;20040;-77
2021/12/27 01:41:43;;;;;;;23.40;13.95;;;3.00;99.90;;;;;;4957768;29;20016;-75
2021/12/27 01:44:13;;;;;;;26.10;15.27;;;3.00;99.90;;;;;;4953252;29;20031;-77
2021/12/27 01:46:40;;;;;;;31.40;17.83;;;3.00;99.90;;;;;;4954032;29;20031;-73
2021/12/27 01:49:07;;;;;;;32.88;19.00;;;3.00;99.90;;;;;;4941056;29;20386;-78
2021/12/27 01:51:38;;;;;;;29.77;19.08;;;3.00;99.90;;;;;;4954122;29;20047;-74
2021/12/27 01:54:05;;;;;;;24.70;15.20;;;3.00;99.90;;;;;;4954092;29;20023;-77
2021/12/27 01:56:31;;;;;;;31.27;18.85;;;3.10;99.90;;;;;;4953945;29;20437;-68
2021/12/27 01:58:59;;;;;;;25.15;15.07;;;3.10;99.90;;;;;;4953880;29;20023;-76
2021/12/27 02:01:25;;;;;;;22.38;13.95;;;3.10;99.90;;;;;;4954307;28;20058;-69
2021/12/27 02:03:53;;;;;;;26.77;15.15;;;3.10;99.90;;;;;;4954107;28;20023;-69
2021/12/27 02:06:20;;;;;;;24.92;14.98;;;3.10;99.90;;;;;;4953802;28;20512;-71
2021/12/27 02:08:47;;;;;;;24.65;14.65;;;3.00;99.90;;;;;;4953983;28;20031;-77
2021/12/27 02:11:15;;;;;;;23.20;13.15;;;2.90;99.90;;;;;;4953884;29;20054;-73
2021/12/27 02:13:45;;;;;;;21.42;13.23;;;3.00;99.90;;;;;;4953761;29;20102;-77
2021/12/27 02:16:20;;;;;;;26.75;15.55;;;2.90;99.90;;;;;;4953636;29;20043;-78
2021/12/27 02:18:47;;;;;;;25.60;14.80;;;3.00;99.90;;;;;;4954031;29;20114;-78
2021/12/27 02:21:14;;;;;;;27.15;16.05;;;2.90;99.90;;;;;;4953728;29;20030;-70
2021/12/27 02:23:41;;;;;;;28.63;17.35;;;3.00;99.90;;;;;;4953671;29;20027;-75
2021/12/27 02:26:08;;;;;;;18.67;11.85;;;3.00;99.90;;;;;;4953528;29;20071;-69
2021/12/27 02:28:34;;;;;;;19.63;11.73;;;2.80;99.90;;;;;;4953731;29;20031;-68
2021/12/27 02:31:00;;;;;;;23.05;12.43;;;2.80;99.90;;;;;;4954058;28;20046;-68
2021/12/27 02:33:26;;;;;;;22.23;12.68;;;2.80;99.90;;;;;;4957480;29;20019;-78
2021/12/27 02:35:58;;;;;;;23.30;13.98;;;2.80;99.90;;;;;;4957580;29;20090;-77
2021/12/27 02:38:27;;;;;;;22.40;12.80;;;2.80;99.90;;;;;;4957810;29;20034;-68
2021/12/27 02:40:55;;;;;;;19.90;11.35;;;2.70;99.90;;;;;;4957420;29;20118;-68
2021/12/27 02:43:24;;;;;;;23.75;11.95;;;2.70;99.90;;;;;;4957255;29;20509;-79
2021/12/27 02:45:56;;;;;;;22.17;12.05;;;2.70;99.90;;;;;;4957476;29;20063;-77
2021/12/27 02:48:31;;;;;;;19.88;11.65;;;2.70;99.90;;;;;;4957269;29;20086;-68
2021/12/27 02:50:58;;;;;;;19.25;10.98;;;2.70;99.90;;;;;;4957282;29;20043;-77
2021/12/27 02:53:25;;;;;;;19.15;10.45;;;2.60;99.90;;;;;;4957104;29;20064;-77
2021/12/27 02:55:53;;;;;;;19.05;12.07;;;2.60;99.90;;;;;;4957394;29;20055;-72
2021/12/27 02:58:20;;;;;;;18.02;11.23;;;2.60;99.90;;;;;;4957341;28;20019;-72
2021/12/27 03:01:09;;;;;;;18.10;10.40;;;2.50;99.90;;;;;;4957231;29;20039;-78
2021/12/27 03:03:35;;;;;;;19.17;10.68;;;2.50;99.90;;;;;;4956904;29;20078;-77
2021/12/27 03:06:01;;;;;;;17.80;9.77;;;2.50;99.90;;;;;;4956327;29;20521;-77
2021/12/27 03:08:28;;;;;;;17.60;10.35;;;2.50;99.90;;;;;;4956643;29;20027;-71
2021/12/27 03:10:58;;;;;;;18.42;10.55;;;2.50;99.90;;;;;;4956645;29;20035;-78
2021/12/27 03:13:30;;;;;;;16.10;9.57;;;2.60;99.90;;;;;;4956816;29;20040;-69
2021/12/27 03:16:01;;;;;;;18.13;10.23;;;2.60;99.90;;;;;;4939583;29;20032;-76
2021/12/27 03:18:44;;;;;;;18.08;9.25;;;2.60;99.90;;;;;;4975256;29;20019;-78
2021/12/27 03:21:23;;;;;;;18.65;10.25;;;2.60;99.90;;;;;;4938859;29;20039;-76
2021/12/27 03:23:50;;;;;;;18.85;10.52;;;2.60;99.90;;;;;;4956614;29;20023;-69
2021/12/27 03:26:16;;;;;;;21.50;10.85;;;2.60;99.90;;;;;;4956717;29;20133;-75
2021/12/27 03:28:43;;;;;;;19.50;10.00;;;2.60;99.90;;;;;;4956366;28;20039;-75
2021/12/27 03:31:10;;;;;;;16.70;9.75;;;2.60;99.90;;;;;;4955919;29;20027;-75
2021/12/27 03:33:40;;;;;;;15.70;9.05;;;2.70;99.90;;;;;;4956100;29;20437;-77
2021/12/27 03:36:08;;;;;;;17.40;9.80;;;2.70;99.90;;;;;;4956160;29;20027;-72
2021/12/27 03:38:43;;;;;;;16.92;9.57;;;2.60;99.90;;;;;;4971832;29;20035;-76
2021/12/27 03:41:15;;;;;;;18.80;9.77;;;2.60;99.90;;;;;;4956112;29;20023;-69
2021/12/27 03:43:52;;;;;;;14.68;8.63;;;2.60;99.90;;;;;;4979316;28;20027;-75
2021/12/27 03:46:28;;;;;;;14.63;8.02;;;2.60;99.90;;;;;;4978644;29;20047;-73
2021/12/27 03:48:58;;;;;;;19.02;10.05;;;2.60;99.90;;;;;;4951201;29;20533;-76
2021/12/27 03:51:24;;;;;;;16.70;9.90;;;2.60;99.90;;;;;;4954948;28;20043;-71
2021/12/27 03:53:50;;;;;;;16.10;9.98;;;2.70;99.90;;;;;;4955915;29;20508;-74
2021/12/27 03:56:16;;;;;;;17.92;9.93;;;2.70;99.90;;;;;;4955744;29;20035;-74
2021/12/27 03:58:56;;;;;;;19.10;10.52;;;2.60;99.90;;;;;;4955687;29;20035;-76
2021/12/27 04:01:23;;;;;;;20.08;10.90;;;2.60;99.90;;;;;;4955932;29;20035;-74
2021/12/27 04:03:55;;;;;;;19.20;12.27;;;2.70;99.90;;;;;;4956058;28;20023;-75
2021/12/27 04:06:25;;;;;;;20.52;11.57;;;2.80;99.90;;;;;;4955112;29;20091;-75
2021/12/27 04:08:52;;;;;;;21.15;11.63;;;2.80;99.90;;;;;;4954684;28;20370;-76
2021/12/27 04:11:18;;;;;;;20.55;11.00;;;2.80;99.90;;;;;;4962559;29;20035;-69
2021/12/27 04:13:44;;;;;;;20.70;10.90;;;2.90;99.90;;;;;;4955520;29;20027;-76
2021/12/27 04:16:10;;;;;;;20.42;12.10;;;2.90;99.90;;;;;;4955428;29;20383;-71
2021/12/27 04:18:35;;;;;;;21.65;10.90;;;2.80;99.90;;;;;;4955353;29;20031;-76
2021/12/27 04:21:01;;;;;;;26.52;15.73;;;2.80;99.90;;;;;;4955342;29;20034;-74
2021/12/27 04:23:27;;;;;;;22.10;13.70;;;2.70;99.90;;;;;;4955202;29;20032;-70
2021/12/27 04:25:53;;;;;;;23.95;14.32;;;2.70;99.90;;;;;;4955431;29;20038;-71
2021/12/27 04:28:20;;;;;;;24.30;13.98;;;2.80;99.90;;;;;;4955252;29;20054;-69
2021/12/27 04:30:46;;;;;;;21.88;14.05;;;2.80;99.90;;;;;;4955352;28;20165;-76
2021/12/27 04:33:12;;;;;;;18.23;11.40;;;2.80;99.90;;;;;;4955087;29;20029;-75
2021/12/27 04:35:38;;;;;;;18.73;10.20;;;2.80;99.90;;;;;;4955192;29;20031;-75
2021/12/27 04:38:05;;;;;;;18.98;11.50;;;2.70;99.90;;;;;;4955157;29;20078;-75
2021/12/27 04:40:36;;;;;;;17.90;10.52;;;2.70;99.90;;;;;;4954972;29;20023;-71
2021/12/27 04:43:10;;;;;;;19.33;10.80;;;2.70;99.90;;;;;;4955316;29;20529;-75
2021/12/27 04:45:37;;;;;;;18.98;11.27;;;2.80;99.90;;;;;;4954690;29;20035;-76
2021/12/27 04:48:04;;;;;;;17.20;10.13;;;2.90;99.90;;;;;;4953420;29;20430;-71
2021/12/27 04:50:30;;;;;;;18.02;9.18;;;2.90;99.90;;;;;;4965586;29;20027;-75
2021/12/27 04:52:56;;;;;;;16.55;8.88;;;2.90;99.90;;;;;;4954940;29;20520;-69
2021/12/27 04:55:24;;;;;;;15.88;9.13;;;3.00;99.90;;;;;;4958401;28;20054;-75
2021/12/27 04:58:01;;;;;;;15.88;9.20;;;2.90;99.90;;;;;;4977098;29;20050;-73
2021/12/27 05:00:49;;;;;;;14.90;7.57;;;2.90;99.90;;;;;;4978671;28;20098;-76
2021/12/27 05:03:17;;;;;;;13.07;7.13;;;2.90;99.90;;;;;;4967806;29;20047;-76
2021/12/27 05:05:45;;;;;;;13.50;7.40;;;2.90;99.90;;;;;;4954066;29;20058;-68
2021/12/27 05:08:13;;;;;;;13.25;7.72;;;3.00;99.90;;;;;;4967383;29;20039;-76
2021/12/27 05:10:45;;;;;;;16.58;8.60;;;2.90;99.90;;;;;;4968493;29;20043;-75
2021/12/27 05:13:11;;;;;;;15.82;7.30;;;3.00;99.90;;;;;;4957837;29;20031;-77
2021/12/27 05:15:37;;;;;;;17.48;8.52;;;3.10;99.90;;;;;;4954440;29;20496;-73
2021/12/27 05:18:03;;;;;;;15.43;8.25;;;3.10;99.90;;;;;;4954166;29;20031;-68
2021/12/27 05:20:29;;;;;;;14.43;8.10;;;3.10;99.90;;;;;;4954056;29;20523;-77
2021/12/27 05:22:55;;;;;;;15.25;7.78;;;3.10;99.90;;;;;;4954387;29;20035;-69
2021/12/27 05:25:20;;;;;;;13.40;7.70;;;3.20;99.90;;;;;;4954696;29;20027;-72
2021/12/27 05:27:46;;;;;;;16.08;8.27;;;3.10;99.90;;;;;;4954575;29;20043;-71
2021/12/27 05:30:13;;;;;;;17.75;10.20;;;3.10;99.90;;;;;;4954391;29;20023;-72
2021/12/27 05:32:40;;;;;;;22.08;13.60;;;3.10;99.90;;;;;;4954537;29;20035;-75
2021/12/27 05:35:08;;;;;;;23.25;14.40;;;3.10;99.90;;;;;;4954037;29;20069;-72
2021/12/27 05:37:44;;;;;;;30.95;17.77;;;2.90;99.90;;;;;;4958088;29;20038;-77
2021/12/27 05:40:26;;;;;;;32.70;20.38;;;3.00;99.90;;;;;;4976135;29;20015;-76
2021/12/27 05:43:12;;;;;;;32.97;20.67;;;3.00;99.90;;;;;;4977754;28;20087;-77
2021/12/27 05:46:07;;;;;;;41.15;24.13;;;3.10;99.90;;;;;;4978382;28;20095;-74
2021/12/27 05:48:45;;;;;;;26.83;15.88;;;3.10;99.90;;;;;;4978481;28;20066;-76
2021/12/27 05:52:31;;;;;;;24.33;13.73;;;3.10;99.90;;;;;;4978494;28;20042;-78
2021/12/27 05:55:07;;;;;;;19.10;11.30;;;3.10;99.90;;;;;;4946349;29;20031;-69
2021/12/27 05:57:33;;;;;;;19.80;10.80;;;3.00;99.90;;;;;;4953602;29;20183;-70
2021/12/27 05:59:59;;;;;;;19.00;11.00;;;3.00;99.90;;;;;;4953522;28;20023;-78
2021/12/27 06:02:25;;;;;;;21.13;11.48;;;3.00;99.90;;;;;;4953838;29;20374;-78
2021/12/27 06:04:51;;;;;;;23.00;12.35;;;3.00;99.90;;;;;;4953975;28;20063;-75
2021/12/27 06:07:17;;;;;;;23.10;13.60;;;2.90;99.90;;;;;;4953963;29;20118;-76
2021/12/27 06:09:43;;;;;;;22.55;12.38;;;2.90;99.90;;;;;;4953623;29;20482;-68
2021/12/27 06:12:09;;;;;;;23.00;12.45;;;3.00;99.90;;;;;;4953500;29;20046;-77
2021/12/27 06:14:35;;;;;;;19.98;12.73;;;2.90;99.90;;;;;;4953514;29;20023;-77
2021/12/27 06:17:02;;;;;;;23.02;14.68;;;2.90;99.90;;;;;;4953505;29;20039;-77
2021/12/27 06:19:28;;;;;;;23.92;13.93;;;2.90;99.90;;;;;;4953533;29;20606;-75
2021/12/27 06:21:54;;;;;;;25.70;15.13;;;3.00;99.90;;;;;;4953453;29;20077;-74
2021/12/27 06:24:20;;;;;;;27.77;18.13;;;2.90;99.90;;;;;;4953746;29;20059;-78
2021/12/27 06:26:46;;;;;;;29.35;17.98;;;2.90;99.90;;;;;;4953555;29;20509;-74
2021/12/27 06:29:12;;;;;;;30.67;18.77;;;2.80;99.90;;;;;;4953367;29;20038;-70
2021/12/27 06:31:38;;;;;;;32.97;21.02;;;2.70;99.90;;;;;;4953407;29;20035;-69
2021/12/27 06:34:04;;;;;;;30.52;19.45;;;2.70;99.90;;;;;;4953191;29;20034;-70
2021/12/27 06:36:30;;;;;;;33.08;18.85;;;2.70;99.90;;;;;;4953588;29;20157;-71
2021/12/27 06:38:56;;;;;;;30.50;19.58;;;2.60;99.90;;;;;;4953471;29;20040;-69
2021/12/27 06:41:24;;;;;;;32.85;22.92;;;2.60;99.90;;;;;;4953490;29;20031;-73
2021/12/27 06:43:51;;;;;;;40.58;26.08;;;2.60;99.90;;;;;;4953581;29;20036;-78
2021/12/27 06:46:18;;;;;;;26.65;17.17;;;2.60;99.90;;;;;;4953140;29;20036;-76
2021/12/27 06:48:44;;;;;;;28.17;16.05;;;2.60;99.90;;;;;;4953477;29;20042;-78
2021/12/27 06:51:10;;;;;;;24.60;14.75;;;2.60;99.90;;;;;;4953397;29;20027;-78
2021/12/27 06:53:36;;;;;;;23.67;14.32;;;2.50;99.90;;;;;;4953475;29;20031;-78
2021/12/27 06:56:04;;;;;;;27.55;16.25;;;2.50;99.90;;;;;;4953460;29;20023;-78
2021/12/27 06:58:30;;;;;;;27.85;17.60;;;2.50;99.90;;;;;;4953382;29;20558;-78
2021/12/27 07:00:56;;;;;;;28.27;19.02;;;2.50;99.90;;;;;;4953721;29;20034;-71
2021/12/27 07:03:22;;;;;;;29.13;18.48;;;2.50;99.90;;;;;;4953145;29;20027;-78
2021/12/27 07:05:48;;;;;;;23.92;15.15;;;2.50;99.90;;;;;;4953406;29;20083;-71
2021/12/27 07:08:16;;;;;;;26.35;16.85;;;2.50;99.90;;;;;;4953583;28;20027;-78
2021/12/27 07:10:42;;;;;;;22.10;13.98;;;2.50;99.90;;;;;;4953197;29;20505;-78
2021/12/27 07:13:09;;;;;;;23.38;14.63;;;2.60;99.90;;;;;;4952931;29;20430;-76
2021/12/27 07:15:41;;;;;;;20.67;13.70;;;2.40;99.90;;;;;;4953357;29;20042;-72
2021/12/27 07:18:09;;;;;;;23.87;13.50;;;2.50;99.90;;;;;;4955080;28;20102;-74
2021/12/27 07:20:35;;;;;;;23.48;14.45;;;2.50;99.90;;;;;;4956494;29;20464;-74
2021/12/27 07:23:03;;;;;;;25.15;14.93;;;2.50;99.90;;;;;;4956532;29;20039;-78
2021/12/27 07:25:29;;;;;;;25.27;15.15;;;2.50;99.90;;;;;;4956864;29;20026;-74
2021/12/27 07:27:55;;;;;;;23.50;15.38;;;2.60;99.90;;;;;;4956682;29;20532;-68
2021/12/27 07:30:21;;;;;;;24.23;12.85;;;2.40;99.90;;;;;;4956884;29;20036;-72
2021/12/27 07:32:47;;;;;;;20.10;10.98;;;2.50;99.90;;;;;;4956357;29;20038;-68
2021/12/27 07:35:13;;;;;;;17.35;10.65;;;2.50;99.90;;;;;;4956486;29;20200;-68
2021/12/27 07:37:40;;;;;;;17.63;11.52;;;2.40;99.90;;;;;;4956465;29;20035;-78
2021/12/27 07:40:07;;;;;;;16.00;9.52;;;2.50;99.90;;;;;;4956376;29;20023;-79
2021/12/27 07:42:33;;;;;;;18.00;10.27;;;2.40;99.90;;;;;;4936249;29;20077;-69
2021/12/27 07:44:59;;;;;;;17.02;10.88;;;2.30;99.90;;;;;;4954354;29;20023;-75
2021/12/27 07:47:29;;;;;;;19.13;10.98;;;2.30;99.90;;;;;;4977492;29;20031;-70
2021/12/27 07:50:06;;;;;;;19.35;11.75;;;2.30;99.90;;;;;;4977754;29;20033;-79
2021/12/27 07:52:47;;;;;;;17.80;10.18;;;2.40;99.90;;;;;;4977302;28;20016;-78
2021/12/27 07:55:20;;;;;;;17.17;11.57;;;2.40;99.90;;;;;;4958922;28;20047;-67
2021/12/27 07:57:46;;;;;;;18.70;11.90;;;2.30;99.90;;;;;;4954559;29;20448;-78
2021/12/27 08:00:13;;;;;;;14.93;9.43;;;2.30;99.90;;;;;;4952686;28;20529;-76
2021/12/27 08:02:38;;;;;;;17.25;10.65;;;2.30;99.90;;;;;;4949865;29;20374;-75
2021/12/27 08:05:06;;;;;;;16.70;9.35;;;2.30;99.90;;;;;;4934620;29;20059;-75
2021/12/27 08:07:32;;;;;;;18.63;10.57;;;2.30;99.90;;;;;;4935396;29;20020;-75
2021/12/27 08:09:57;;;;;;;20.17;11.40;;;2.30;99.90;;;;;;4936596;29;20437;-76
2021/12/27 08:12:24;;;;;;;14.63;8.68;;;2.30;99.90;;;;;;4936715;29;20035;-75
2021/12/27 08:14:50;;;;;;;16.83;10.75;;;2.30;99.90;;;;;;4947777;28;20023;-73
2021/12/27 08:17:16;;;;;;;18.58;11.32;;;2.20;99.90;;;;;;4956196;29;20031;-77
2021/12/27 08:19:43;;;;;;;15.95;9.23;;;2.20;99.90;;;;;;4955540;29;20023;-77
2021/12/27 08:22:09;;;;;;;19.45;9.10;;;2.20;99.90;;;;;;4955562;29;20028;-72
2021/12/27 08:24:36;;;;;;;23.65;11.93;;;2.20;99.90;;;;;;4953867;29;20295;-76
2021/12/27 08:27:03;;;;;;;17.73;9.65;;;2.20;99.90;;;;;;4956201;28;20489;-78
2021/12/27 08:29:30;;;;;;;15.15;8.40;;;2.20;99.90;;;;;;4954972;28;20031;-78
2021/12/27 08:31:56;;;;;;;17.70;9.88;;;2.30;99.90;;;;;;4949587;29;20115;-77
2021/12/27 08:34:22;;;;;;;15.43;8.98;;;2.30;99.90;;;;;;4936430;29;20107;-77
2021/12/27 08:36:48;;;;;;;17.40;10.52;;;2.40;99.90;;;;;;4937693;29;20116;-77
2021/12/27 08:39:15;;;;;;;14.70;8.90;;;2.40;99.90;;;;;;4947308;29;20047;-72
2021/12/27 08:41:41;;;;;;;14.05;8.50;;;2.40;99.90;;;;;;4955211;29;20524;-76
2021/12/27 08:44:07;;;;;;;13.60;8.15;;;2.30;99.90;;;;;;4955278;29;20056;-75
2021/12/27 08:46:34;;;;;;;12.77;7.88;;;2.40;99.90;;;;;;4948980;29;20077;-78
2021/12/27 08:49:03;;;;;;;14.95;8.95;;;2.30;99.90;;;;;;4936345;29;20365;-76
2021/12/27 08:51:30;;;;;;;16.88;9.65;;;2.30;99.90;;;;;;4936558;29;20490;-78
2021/12/27 08:53:55;;;;;;;14.00;8.40;;;2.30;99.90;;;;;;4955615;29;20027;-78
2021/12/27 08:56:22;;;;;;;15.50;8.80;;;2.40;99.90;;;;;;4955401;29;20039;-79
2021/12/27 08:58:48;;;;;;;12.35;6.80;;;2.30;99.90;;;;;;4955556;29;20034;-75
2021/12/27 09:01:14;;;;;;;11.73;6.57;;;2.30;99.90;;;;;;4955528;28;20097;-79
2021/12/27 09:03:40;;;;;;;12.77;6.63;;;2.30;99.90;;;;;;4955098;28;20019;-79
2021/12/27 09:06:06;;;;;;;12.63;6.75;;;2.40;99.90;;;;;;4955149;28;20055;-79
2021/12/27 09:08:32;;;;;;;10.95;6.20;;;2.30;99.90;;;;;;4955250;28;20027;-79
2021/12/27 09:10:58;;;;;;;12.93;6.85;;;2.40;99.90;;;;;;4955226;28;20390;-71
2021/12/27 09:13:32;;;;;;;13.82;7.53;;;2.40;99.90;;;;;;4950543;28;20023;-70
2021/12/27 09:16:02;;;;;;;13.77;8.45;;;2.30;99.90;;;;;;4950613;28;20159;-69
2021/12/27 09:18:33;;;;;;;13.98;8.50;;;2.40;99.90;;;;;;4953920;28;20035;-74
2021/12/27 09:21:00;;;;;;;14.38;8.95;;;2.40;99.90;;;;;;4954515;28;20030;-70
2021/12/27 09:23:26;;;;;;;16.45;7.95;;;2.50;99.90;;;;;;4954956;29;20155;-79
2021/12/27 09:25:52;;;;;;;13.88;7.57;;;2.50;99.90;;;;;;4954259;28;20031;-70
2021/12/27 09:28:18;;;;;;;14.07;7.82;;;2.50;99.90;;;;;;4953783;28;20034;-69
2021/12/27 09:30:44;;;;;;;14.70;9.05;;;2.60;99.90;;;;;;4954844;28;20069;-78
2021/12/27 09:33:10;;;;;;;13.70;8.15;;;2.50;99.90;;;;;;4954707;28;20059;-79
2021/12/27 09:35:36;;;;;;;15.10;9.38;;;2.60;99.90;;;;;;4955004;29;20482;-75
2021/12/27 09:38:02;;;;;;;17.60;10.18;;;2.70;99.90;;;;;;4954825;28;20567;-75
2021/12/27 09:40:28;;;;;;;14.70;8.93;;;2.70;99.90;;;;;;4953891;28;20027;-77
2021/12/27 09:42:55;;;;;;;16.00;8.52;;;2.70;99.90;;;;;;4954681;28;20028;-71
2021/12/27 09:45:22;;;;;;;14.95;8.25;;;2.70;99.90;;;;;;4955356;28;20410;-80
2021/12/27 09:47:50;;;;;;;13.48;7.50;;;2.60;99.90;;;;;;4954870;29;20033;-75
2021/12/27 09:50:29;;;;;;;16.48;8.55;;;2.60;99.90;;;;;;4954763;29;20473;-78
2021/12/27 09:52:55;;;;;;;16.33;9.85;;;2.70;99.90;;;;;;4954602;28;20714;-78
2021/12/27 09:55:21;;;;;;;18.70;9.32;;;2.60;99.90;;;;;;4954282;29;20031;-72
2021/12/27 09:57:47;;;;;;;15.77;9.48;;;2.60;99.90;;;;;;4954110;28;20090;-79
2021/12/27 10:00:13;;;;;;;19.80;12.63;;;2.60;99.90;;;;;;4954514;28;20062;-80
2021/12/27 10:02:40;;;;;;;17.25;10.63;;;2.70;99.90;;;;;;4954582;28;20035;-80
2021/12/27 10:05:07;;;;;;;15.63;9.52;;;2.80;99.90;;;;;;4954847;28;20561;-79
2021/12/27 10:07:41;;;;;;;18.75;11.52;;;2.90;99.90;;;;;;4954141;28;20033;-70
2021/12/27 10:10:10;;;;;;;13.73;7.30;;;2.90;99.90;;;;;;4954330;29;20031;-78
2021/12/27 10:12:36;;;;;;;14.73;7.85;;;2.90;99.90;;;;;;4954211;28;20039;-77
2021/12/27 10:15:12;;;;;;;17.45;10.15;;;2.90;99.90;;;;;;4954022;28;20027;-79
2021/12/27 10:17:38;;;;;;;18.30;9.90;;;2.90;99.90;;;;;;4954655;28;20065;-75
2021/12/27 10:20:10;;;;;;;20.95;11.73;;;3.00;99.90;;;;;;4954145;29;20051;-78
2021/12/27 10:22:39;;;;;;;21.10;13.20;;;3.10;99.90;;;;;;4954066;28;20038;-77
2021/12/27 10:25:25;;;;;;;17.88;10.38;;;3.00;99.90;;;;;;4954177;28;20026;-75
2021/12/27 10:27:55;;;;;;;16.70;9.27;;;3.00;99.90;;;;;;4954364;29;20474;-81
2021/12/27 10:30:28;;;;;;;18.92;10.93;;;3.00;99.90;;;;;;4953943;28;20023;-79
2021/12/27 10:33:09;;;;;;;17.33;10.00;;;3.00;99.90;;;;;;4953758;29;20102;-78
2021/12/27 10:35:45;;;;;;;15.00;9.02;;;3.10;99.90;;;;;;4952408;28;20086;-78
2021/12/27 10:38:18;;;;;;;20.15;12.65;;;3.00;99.90;;;;;;4953646;29;20050;-77
2021/12/27 10:40:48;;;;;;;;;;;3.00;99.90;;;;;;4954550;29;20090;-78
2021/12/27 10:43:18;;;;;;;18.02;11.77;;;3.00;99.90;;;;;;4953927;28;19910;-79
2021/12/27 10:45:46;;;;;;;17.13;10.38;;;3.00;99.90;;;;;;4936964;29;20039;-78
2021/12/27 10:48:22;;;;;;;17.95;11.05;;;3.00;99.90;;;;;;4953627;28;20437;-78
2021/12/27 10:50:49;;;;;;;18.05;10.75;;;3.00;99.90;;;;;;4954258;28;20074;-69
2021/12/27 10:53:15;;;;;;;15.07;9.43;;;3.00;99.90;;;;;;4956263;28;20023;-78
2021/12/27 10:55:47;;;;;;;16.60;10.18;;;2.90;99.90;;;;;;4957905;28;20377;-78
2021/12/27 10:58:29;;;;;;;20.57;11.27;;;2.90;99.90;;;;;;4957745;29;20050;-81
2021/12/27 11:00:59;;;;;;;14.43;8.70;;;2.90;99.90;;;;;;4957128;28;20359;-78
2021/12/27 11:03:30;;;;;;;14.63;8.98;;;2.90;99.90;;;;;;4957131;28;20114;-78
2021/12/27 11:05:57;;;;;;;19.00;9.75;;;2.80;99.90;;;;;;4957574;28;20465;-73
2021/12/27 11:08:24;;;;;;;16.73;9.98;;;2.90;99.90;;;;;;4957686;28;20042;-77
2021/12/27 11:10:50;;;;;;;17.92;10.48;;;3.00;99.90;;;;;;4957745;28;20047;-79
2021/12/27 11:13:16;;;;;;;16.75;10.02;;;3.00;99.90;;;;;;4957509;28;20024;-78
2021/12/27 11:15:43;;;;;;;17.90;10.05;;;3.10;99.90;;;;;;4957202;28;20039;-79
2021/12/27 11:18:12;;;;;;;17.63;10.10;;;3.20;99.90;;;;;;4957426;29;20070;-79
2021/12/27 11:20:47;;;;;;;15.55;9.95;;;3.00;99.90;;;;;;4957236;28;20022;-81
2021/12/27 11:23:15;;;;;;;17.58;11.02;;;3.10;99.90;;;;;;4939592;29;20039;-79
2021/12/27 11:25:46;;;;;;;19.60;10.85;;;3.20;99.90;;;;;;4972890;28;20027;-80
2021/12/27 11:28:32;;;;;;;20.75;10.55;;;3.20;99.90;;;;;;4971843;28;20034;-81
2021/12/27 11:31:15;;;;;;;16.15;9.00;;;3.10;99.90;;;;;;4971147;28;20059;-81
2021/12/27 11:33:54;;;;;;;;;;;3.10;99.90;;;;;;4973481;28;20038;-81
2021/12/27 11:36:30;;;;;;;14.82;8.38;;;2.90;99.90;;;;;;4972474;28;20021;-81
2021/12/27 11:38:59;;;;;;;18.33;10.35;;;2.90;99.90;;;;;;4956722;29;20222;-81
2021/12/27 11:41:40;;;;;;;15.63;9.43;;;2.80;99.90;;;;;;4955833;29;20028;-78
2021/12/27 11:44:17;;;;;;;18.08;10.02;;;2.90;99.90;;;;;;4938932;29;20556;-81
2021/12/27 11:46:51;;;;;;;22.42;11.10;;;2.90;99.90;;;;;;4971563;28;20043;-80
2021/12/27 11:49:58;;;;;;;20.65;10.68;;;2.90;99.90;;;;;;4971374;28;20023;-78
2021/12/27 11:52:38;;;;;;;16.08;10.52;;;3.00;99.90;;;;;;4972761;28;20050;-80
2021/12/27 11:55:21;;;;;;;17.00;10.75;;;3.10;99.90;;;;;;4955328;29;20091;-80
2021/12/27 11:57:56;;;;;;;;;;;3.10;99.90;;;;;;4955768;29;20023;-79
2021/12/27 12:00:27;;;;;;;18.90;10.85;;;3.20;99.90;;;;;;4973100;28;19953;-81
2021/12/27 12:03:20;;;;;;;20.83;11.40;;;3.20;99.90;;;;;;4973179;28;20094;-75
2021/12/27 12:05:51;;;;;;;18.63;12.00;;;3.20;99.90;;;;;;4968658;28;20149;-79
2021/12/27 12:08:39;;;;;;;19.67;11.02;;;3.20;99.90;;;;;;4968924;28;20391;-80
2021/12/27 12:11:10;;;;;;;19.38;10.25;;;3.30;99.90;;;;;;4942385;29;20036;-70
2021/12/27 12:13:47;;;;;;;19.60;11.93;;;3.20;99.90;;;;;;4952737;29;20067;-81
2021/12/27 12:16:19;;;;;;;19.20;11.68;;;3.30;99.90;;;;;;4955332;29;20028;-76
2021/12/27 12:19:00;;;;;;;19.17;10.88;;;3.30;99.90;;;;;;4954598;29;20028;-80
2021/12/27 12:21:40;;;;;;;24.90;15.43;;;3.30;99.90;;;;;;4938754;29;20536;-78
2021/12/27 12:24:12;;;;;;;30.65;16.00;;;3.50;99.90;;;;;;4935739;29;20477;-74
2021/12/27 12:26:47;;;;;;;26.33;15.80;;;3.60;99.90;;;;;;4936009;29;20493;-78
2021/12/27 12:29:13;;;;;;;22.20;12.82;;;3.70;99.90;;;;;;4936662;29;20477;-79
2021/12/27 12:31:39;;;;;;;20.67;11.85;;;3.70;99.90;;;;;;4936387;29;20036;-77
2021/12/27 12:34:20;;;;;;;25.17;14.25;;;3.60;99.90;;;;;;4936354;29;20042;-80
2021/12/27 12:36:55;;;;;;;25.63;15.05;;;3.60;99.90;;;;;;4936295;29;20087;-74
2021/12/27 12:39:23;;;;;;;17.75;10.10;;;3.60;99.90;;;;;;4934556;29;20111;-78
2021/12/27 12:41:50;;;;;;;20.17;11.10;;;3.40;99.90;;;;;;4936353;29;20032;-77
2021/12/27 12:44:17;;;;;;;20.70;12.25;;;3.40;99.90;;;;;;4937055;29;20058;-77
2021/12/27 12:46:50;;;;;;;22.17;12.02;;;3.40;99.90;;;;;;4936721;29;20036;-81
2021/12/27 12:49:22;;;;;;;27.90;17.35;;;3.30;99.90;;;;;;4936753;29;20110;-78
2021/12/27 12:51:52;;;;;;;26.65;15.93;;;3.20;99.90;;;;;;4936408;29;20062;-78
2021/12/27 12:54:23;;;;;;;29.77;18.08;;;3.30;99.90;;;;;;4936223;29;20032;-78